Time;durP1;ratioP1;P1;durP2;ratioP2;P2;SDS_P1;SDS_P2;PMS_P1;PMS_P2;Temp;Humidity;BMP_temperature;BMP_pressure;BME280_temperature;BME280_humidity;BME280_pressure;Samples;Min_cycle;Max_cycle;Signal;HPM_P1;HPM_P2
2021/03/09 00:02:02;;;;;;;7.40;5.70;;;;;;;8.51;43.57;101301.97;4924749;28;97711;-59
2021/03/09 00:04:28;;;;;;;7.80;5.57;;;;;;;8.59;44.13;101298.94;4923094;28;128221;-59
2021/03/09 00:06:54;;;;;;;8.25;5.55;;;;;;;8.45;44.13;101299.38;4924116;28;98762;-60
2021/03/09 00:09:20;;;;;;;6.57;5.18;;;;;;;8.52;44.29;101297.41;4923758;28;130047;-59
2021/03/09 00:11:46;;;;;;;6.75;5.22;;;;;;;8.47;44.15;101300.81;4923651;28;116824;-61
2021/03/09 00:14:12;;;;;;;6.60;5.22;;;;;;;8.49;44.22;101304.09;4924330;28;99460;-59
2021/03/09 00:16:38;;;;;;;6.75;5.45;;;;;;;8.46;43.92;101309.94;4938062;28;109354;-59
2021/03/09 00:19:04;;;;;;;7.80;5.57;;;;;;;8.43;44.50;101312.25;4954241;28;127053;-59
2021/03/09 00:21:31;;;;;;;7.63;5.60;;;;;;;8.47;44.67;101308.06;4921769;28;118005;-61
2021/03/09 00:23:57;;;;;;;8.20;5.70;;;;;;;8.36;43.92;101304.25;4906064;28;98423;-59
2021/03/09 00:26:23;;;;;;;6.95;5.78;;;;;;;8.34;44.27;101301.81;4922496;28;127006;-61
2021/03/09 00:28:49;;;;;;;7.43;5.43;;;;;;;8.39;44.60;101306.53;4923465;28;128435;-59
2021/03/09 00:31:15;;;;;;;8.43;6.10;;;;;;;8.44;44.21;101303.94;4923643;28;117036;-60
2021/03/09 00:33:41;;;;;;;7.95;5.90;;;;;;;8.36;44.31;101296.22;4923012;28;126915;-61
2021/03/09 00:36:07;;;;;;;7.47;5.88;;;;;;;8.40;44.19;101299.28;4923045;28;128095;-59
2021/03/09 00:38:33;;;;;;;7.70;6.05;;;;;;;8.38;44.24;101306.78;4922945;28;126896;-59
2021/03/09 00:40:59;;;;;;;7.72;5.43;;;;;;;8.34;44.31;101307.19;4924142;28;118961;-61
2021/03/09 00:43:25;;;;;;;7.63;5.65;;;;;;;8.39;44.65;101300.34;4894386;28;127951;-59
2021/03/09 00:45:51;;;;;;;6.93;5.57;;;;;;;8.32;44.41;101303.91;4922921;28;127920;-59
2021/03/09 00:48:17;;;;;;;7.38;5.50;;;;;;;8.27;44.52;101301.09;4922201;28;126077;-61
2021/03/09 00:50:43;;;;;;;7.72;5.22;;;;;;;8.26;44.23;101299.47;4905501;28;117828;-61
2021/03/09 00:53:09;;;;;;;7.32;5.55;;;;;;;8.36;45.07;101298.91;4922559;28;127007;-61
2021/03/09 00:55:35;;;;;;;7.20;5.57;;;;;;;8.22;44.48;101297.50;4923571;28;126833;-61
2021/03/09 00:58:02;;;;;;;7.20;5.30;;;;;;;8.22;44.32;101297.50;4923159;28;125002;-60
2021/03/09 01:00:29;;;;;;;7.32;4.78;;;;;;;8.18;44.71;101291.75;4923727;28;111616;-61
2021/03/09 01:02:55;;;;;;;7.13;5.30;;;;;;;8.21;44.10;101293.97;4922346;28;98974;-61
2021/03/09 01:05:21;;;;;;;5.80;4.47;;;;;;;8.12;44.11;101290.00;4920933;28;119671;-59
2021/03/09 01:07:47;;;;;;;5.95;4.40;;;;;;;8.19;44.83;101292.56;4922744;28;105416;-60
2021/03/09 01:10:14;;;;;;;5.22;4.38;;;;;;;8.14;44.49;101287.09;4923722;28;116285;-63
2021/03/09 01:12:41;;;;;;;5.65;4.20;;;;;;;8.11;44.67;101288.34;4923357;28;98353;-60
2021/03/09 01:15:08;;;;;;;5.72;4.18;;;;;;;8.04;44.63;101287.63;4921260;28;103363;-59
2021/03/09 01:17:34;;;;;;;4.95;3.90;;;;;;;8.02;44.51;101289.75;4919858;28;122565;-59
2021/03/09 01:20:00;;;;;;;5.40;3.50;;;;;;;8.07;44.87;101282.63;4923031;28;116544;-59
2021/03/09 01:22:26;;;;;;;4.50;3.58;;;;;;;8.06;44.70;101293.63;4922950;28;107240;-59
2021/03/09 01:24:52;;;;;;;3.85;3.03;;;;;;;7.97;44.68;101285.03;4921584;28;128408;-59
2021/03/09 01:27:19;;;;;;;3.78;3.30;;;;;;;7.92;44.93;101284.94;4920828;28;97907;-61
2021/03/09 01:29:45;;;;;;;4.85;3.40;;;;;;;7.97;44.89;101276.19;4920862;28;118192;-59
2021/03/09 01:32:11;;;;;;;4.78;3.25;;;;;;;7.88;44.95;101278.38;4921943;28;127871;-61
2021/03/09 01:34:37;;;;;;;4.28;3.22;;;;;;;7.95;45.05;101270.22;4923132;28;99669;-59
2021/03/09 01:37:04;;;;;;;4.97;3.42;;;;;;;7.86;45.08;101272.44;4922384;28;127804;-61
2021/03/09 01:39:30;;;;;;;5.05;3.63;;;;;;;7.84;44.94;101269.97;4922248;28;117199;-61
2021/03/09 01:41:56;;;;;;;4.22;2.95;;;;;;;7.87;45.16;101264.16;4922604;28;109201;-59
2021/03/09 01:44:23;;;;;;;5.05;3.00;;;;;;;7.90;44.84;101259.34;4922099;28;128087;-61
2021/03/09 01:46:50;;;;;;;4.25;3.10;;;;;;;7.81;45.01;101265.06;4923701;28;98265;-61
2021/03/09 01:49:16;;;;;;;3.63;3.17;;;;;;;7.78;45.08;101252.13;4923202;28;103214;-59
2021/03/09 01:51:43;;;;;;;4.90;2.85;;;;;;;7.93;44.98;101248.97;4903699;28;127698;-59
2021/03/09 01:54:13;;;;;;;4.10;3.10;;;;;;;7.78;45.18;101254.78;4920875;28;111687;-61
2021/03/09 01:56:40;;;;;;;4.75;3.50;;;;;;;7.75;45.01;101241.81;4922758;28;114434;-61
2021/03/09 01:59:06;;;;;;;4.72;3.13;;;;;;;7.74;44.88;101239.34;4920453;28;113305;-62
2021/03/09 02:01:32;;;;;;;4.45;2.83;;;;;;;7.74;45.34;101242.03;4920096;28;122047;-60
2021/03/09 02:03:58;;;;;;;3.70;3.00;;;;;;;7.76;45.40;101239.97;4919667;28;126044;-59
2021/03/09 02:06:24;;;;;;;4.45;3.13;;;;;;;7.74;45.09;101231.31;4921870;28;127251;-59
2021/03/09 02:08:50;;;;;;;6.38;3.08;;;;;;;7.73;45.32;101237.72;4922965;28;109079;-59
2021/03/09 02:11:37;;;;;;;3.78;2.92;;;;;;;7.66;45.40;101232.44;4952561;28;128405;-59
2021/03/09 02:14:09;;;;;;;4.18;2.90;;;;;;;7.79;45.77;101220.72;4923007;28;97799;-61
2021/03/09 02:16:55;;;;;;;4.23;2.77;;;;;;;7.72;45.37;101228.03;4920286;28;98362;-61
2021/03/09 02:20:17;;;;;;;4.28;2.90;;;;;;;7.61;45.57;101229.63;4922648;28;115538;-61
2021/03/09 02:23:22;;;;;;;4.38;2.90;;;;;;;7.62;45.46;101225.91;4923004;28;98098;-59
2021/03/09 02:26:56;;;;;;;3.20;2.60;;;;;;;7.67;45.87;101219.88;4920539;28;122629;-59
2021/03/09 02:29:54;;;;;;;3.90;2.90;;;;;;;7.62;45.63;101224.06;4896318;28;97911;-59
2021/03/09 02:32:21;;;;;;;3.67;2.70;;;;;;;7.64;45.55;101223.81;4913173;28;98032;-60
2021/03/09 02:34:53;;;;;;;4.55;2.80;;;;;;;7.68;45.54;101221.50;4919305;28;123444;-61
2021/03/09 02:37:19;;;;;;;4.13;2.88;;;;;;;7.64;45.11;101213.09;4904850;28;99466;-59
2021/03/09 02:39:45;;;;;;;4.30;3.00;;;;;;;7.60;45.56;101215.41;4903083;28;127190;-61
2021/03/09 02:42:14;;;;;;;4.43;3.00;;;;;;;7.69;45.58;101212.41;4904833;28;98015;-61
2021/03/09 02:44:40;;;;;;;3.80;2.85;;;;;;;7.59;45.50;101210.28;4884901;28;98184;-59
2021/03/09 02:47:07;;;;;;;4.10;2.80;;;;;;;7.54;45.49;101212.81;4900273;28;127592;-59
2021/03/09 02:49:34;;;;;;;4.15;2.90;;;;;;;7.60;45.63;101215.41;4920521;28;126702;-61
2021/03/09 02:52:01;;;;;;;4.93;3.10;;;;;;;7.51;45.38;101210.63;4937129;28;97865;-61
2021/03/09 02:54:27;;;;;;;5.80;3.30;;;;;;;7.48;45.72;101211.06;4936311;28;98892;-59
2021/03/09 02:56:53;;;;;;;3.92;2.88;;;;;;;7.46;45.51;101202.41;4903301;28;127602;-61
2021/03/09 02:59:19;;;;;;;4.80;3.03;;;;;;;7.46;45.42;101199.72;4921262;28;125664;-62
2021/03/09 03:01:47;;;;;;;4.20;2.97;;;;;;;7.46;45.78;101205.09;4920941;28;97805;-59
2021/03/09 03:04:17;;;;;;;4.70;3.00;;;;;;;7.52;45.67;101207.69;4920690;28;98572;-61
2021/03/09 03:06:47;;;;;;;4.30;2.97;;;;;;;7.49;45.82;101204.66;4920490;28;98463;-61
2021/03/09 03:09:18;;;;;;;4.38;3.08;;;;;;;7.47;45.51;101210.25;4903798;28;98481;-61
2021/03/09 03:11:46;;;;;;;4.88;2.95;;;;;;;7.48;45.91;101203.84;4920401;28;110486;-59
2021/03/09 03:14:12;;;;;;;4.68;3.10;;;;;;;7.40;45.55;101200.66;4919132;28;122115;-61
2021/03/09 03:16:38;;;;;;;4.82;3.00;;;;;;;7.37;45.81;101201.94;4919360;28;115871;-59
2021/03/09 03:19:08;;;;;;;4.70;3.20;;;;;;;7.42;45.98;101201.22;4903303;28;120596;-59
2021/03/09 03:21:38;;;;;;;4.40;3.00;;;;;;;7.43;46.12;101195.66;4903637;28;112942;-61
2021/03/09 03:24:06;;;;;;;4.65;3.05;;;;;;;7.37;45.49;101196.56;4903760;28;99378;-59
2021/03/09 03:26:43;;;;;;;4.07;2.78;;;;;;;7.38;45.91;101201.69;4904159;28;113880;-61
2021/03/09 03:29:10;;;;;;;6.15;3.25;;;;;;;7.34;46.03;101195.13;4923229;28;103160;-61
2021/03/09 03:31:36;;;;;;;4.63;2.90;;;;;;;7.39;46.07;101191.81;4906501;28;99452;-59
2021/03/09 03:34:03;;;;;;;3.65;2.72;;;;;;;7.37;46.07;101200.06;4924905;28;98342;-61
2021/03/09 03:36:34;;;;;;;4.15;3.08;;;;;;;7.30;45.53;101191.28;4955555;28;121698;-61
2021/03/09 03:39:00;;;;;;;5.15;3.30;;;;;;;7.30;45.96;101193.97;4921449;28;125219;-61
2021/03/09 03:41:26;;;;;;;4.72;3.10;;;;;;;7.25;45.99;101190.34;4923234;28;97778;-59
2021/03/09 03:43:52;;;;;;;4.78;2.90;;;;;;;7.28;46.17;101197.94;4924202;28;126856;-61
2021/03/09 03:46:18;;;;;;;3.88;2.70;;;;;;;7.34;45.91;101194.31;4924140;28;128769;-61
2021/03/09 03:48:46;;;;;;;4.68;2.97;;;;;;;7.25;46.25;101191.16;4924451;28;114772;-61
2021/03/09 03:51:14;;;;;;;4.22;2.90;;;;;;;7.36;45.97;101192.25;4925288;28;97902;-61
2021/03/09 03:53:57;;;;;;;5.15;2.92;;;;;;;7.23;45.62;101195.09;4924160;28;97801;-59
2021/03/09 03:57:08;;;;;;;4.60;2.80;;;;;;;7.22;46.38;101194.28;4924963;28;98665;-59
2021/03/09 03:59:40;;;;;;;3.65;2.80;;;;;;;7.26;46.14;101191.97;4924501;28;97861;-61
2021/03/09 04:02:11;;;;;;;4.53;2.85;;;;;;;7.28;45.98;101192.56;4922310;28;110030;-61
2021/03/09 04:04:38;;;;;;;4.03;2.80;;;;;;;7.22;45.92;101188.09;4906827;28;98854;-61
2021/03/09 04:07:07;;;;;;;4.20;2.65;;;;;;;7.28;46.16;101181.84;4923974;28;99357;-61
2021/03/09 04:09:33;;;;;;;3.63;2.50;;;;;;;7.21;45.98;101181.13;4924703;28;97834;-62
2021/03/09 04:12:01;;;;;;;4.45;3.03;;;;;;;7.15;46.25;101177.47;4889972;28;110438;-61
2021/03/09 04:14:29;;;;;;;3.78;2.40;;;;;;;7.20;46.55;101180.31;4924011;28;98318;-60
2021/03/09 04:16:55;;;;;;;4.85;2.78;;;;;;;7.20;46.13;101188.34;4906467;28;120616;-60
2021/03/09 04:19:22;;;;;;;3.90;2.55;;;;;;;7.26;46.24;101192.78;4937855;28;124619;-59
2021/03/09 04:21:48;;;;;;;3.78;2.80;;;;;;;7.25;45.86;101188.47;4939226;28;97945;-61
2021/03/09 04:24:15;;;;;;;3.22;2.40;;;;;;;7.22;45.95;101183.56;4954571;28;125813;-62
2021/03/09 04:26:42;;;;;;;5.05;2.88;;;;;;;7.28;45.66;101182.66;4921486;28;128169;-59
2021/03/09 04:29:09;;;;;;;4.13;2.70;;;;;;;7.36;45.65;101198.44;4923599;28;114287;-59
2021/03/09 04:31:39;;;;;;;4.20;2.58;;;;;;;7.35;45.75;101190.63;4939368;28;98006;-59
2021/03/09 04:34:05;;;;;;;3.45;2.40;;;;;;;7.24;45.71;101186.03;4924140;28;113931;-61
2021/03/09 04:36:32;;;;;;;5.40;2.72;;;;;;;7.33;45.80;101187.34;4922299;28;98444;-59
2021/03/09 04:38:58;;;;;;;4.10;3.08;;;;;;;7.23;45.75;101179.00;4921921;28;97948;-60
2021/03/09 04:41:24;;;;;;;4.68;2.95;;;;;;;7.25;45.58;101176.94;4938036;28;97780;-59
2021/03/09 04:43:50;;;;;;;4.15;2.80;;;;;;;7.28;46.12;101177.28;4954633;28;98421;-61
2021/03/09 04:46:16;;;;;;;5.32;3.20;;;;;;;7.24;45.73;101180.66;4923489;28;126909;-59
2021/03/09 04:48:42;;;;;;;5.32;2.92;;;;;;;7.33;45.74;101172.06;4920932;28;127628;-61
2021/03/09 04:51:11;;;;;;;3.92;2.63;;;;;;;7.22;45.91;101174.69;4938079;28;99684;-59
2021/03/09 04:53:40;;;;;;;4.93;3.10;;;;;;;7.20;45.88;101174.13;4921400;28;98289;-61
2021/03/09 04:56:06;;;;;;;4.60;3.03;;;;;;;7.16;46.01;101172.94;4921885;28;98365;-59
2021/03/09 04:58:33;;;;;;;4.05;2.97;;;;;;;7.31;45.63;101176.84;4922855;28;97859;-59
2021/03/09 05:00:59;;;;;;;4.63;3.28;;;;;;;7.18;45.62;101171.66;4924175;28;97773;-62
2021/03/09 05:03:25;;;;;;;4.18;3.20;;;;;;;7.21;46.19;101173.06;4922645;28;128351;-61
2021/03/09 05:05:54;;;;;;;3.97;3.03;;;;;;;7.22;45.63;101172.81;4924167;28;98436;-59
2021/03/09 05:08:21;;;;;;;5.18;3.10;;;;;;;7.17;46.12;101179.94;4922264;28;126721;-61
2021/03/09 05:10:47;;;;;;;4.72;3.30;;;;;;;7.10;45.80;101169.28;4924288;28;97824;-61
2021/03/09 05:13:15;;;;;;;4.38;3.22;;;;;;;7.13;45.87;101171.53;4952996;28;127402;-59
2021/03/09 05:15:41;;;;;;;4.43;3.20;;;;;;;7.08;45.79;101166.03;4922118;28;98245;-59
2021/03/09 05:18:07;;;;;;;4.90;3.20;;;;;;;7.06;45.87;101168.09;4905517;28;97952;-61
2021/03/09 05:20:33;;;;;;;4.43;3.03;;;;;;;7.08;46.40;101163.34;4872569;28;115502;-61
2021/03/09 05:22:59;;;;;;;4.78;3.25;;;;;;;7.05;45.88;101169.97;4904472;28;123303;-59
2021/03/09 05:25:25;;;;;;;5.60;3.20;;;;;;;7.02;46.00;101169.59;4922159;28;126220;-61
2021/03/09 05:27:51;;;;;;;5.90;4.00;;;;;;;7.05;46.20;101171.84;4922251;28;127275;-61
2021/03/09 05:30:19;;;;;;;5.72;4.28;;;;;;;7.01;46.23;101179.50;4921077;28;97792;-61
2021/03/09 05:32:45;;;;;;;4.93;3.78;;;;;;;6.98;46.15;101182.63;4921062;28;98819;-61
2021/03/09 05:35:13;;;;;;;5.57;4.28;;;;;;;7.05;46.22;101179.88;4923500;28;99756;-61
2021/03/09 05:37:39;;;;;;;6.15;4.53;;;;;;;7.06;46.37;101174.28;4922549;28;102276;-61
2021/03/09 05:40:06;;;;;;;5.05;4.10;;;;;;;7.12;46.35;101177.94;4954450;28;98136;-61
2021/03/09 05:42:33;;;;;;;5.90;3.97;;;;;;;7.08;46.37;101179.44;4920008;28;106737;-61
2021/03/09 05:44:59;;;;;;;5.22;3.85;;;;;;;7.14;45.84;101179.31;4902468;28;105196;-60
2021/03/09 05:47:25;;;;;;;4.93;3.60;;;;;;;7.13;45.81;101175.03;4900864;28;127483;-59
2021/03/09 05:49:51;;;;;;;6.00;4.07;;;;;;;7.09;45.64;101176.53;4902361;28;102403;-61
2021/03/09 05:52:18;;;;;;;5.15;3.58;;;;;;;7.15;46.09;101172.09;4901220;28;128498;-59
2021/03/09 05:54:45;;;;;;;4.93;3.65;;;;;;;7.11;46.26;101178.97;4920281;28;123145;-59
2021/03/09 05:57:11;;;;;;;4.70;3.35;;;;;;;7.20;45.90;101176.81;4916624;28;128272;-59
2021/03/09 05:59:37;;;;;;;6.00;3.15;;;;;;;7.24;46.23;101170.75;4920423;28;97923;-61
2021/03/09 06:02:04;;;;;;;6.00;3.65;;;;;;;7.20;46.35;101171.44;4919291;28;127937;-59
2021/03/09 06:04:34;;;;;;;6.00;3.40;;;;;;;7.20;45.95;101169.56;4920028;28;99445;-59
2021/03/09 06:07:00;;;;;;;4.38;3.22;;;;;;;7.32;46.53;101174.97;4918546;28;121975;-59
2021/03/09 06:09:39;;;;;;;5.22;3.20;;;;;;;7.34;46.49;101170.19;4901862;28;116216;-61
2021/03/09 06:12:16;;;;;;;5.55;2.95;;;;;;;7.31;46.50;101170.63;4921336;28;98658;-60
2021/03/09 06:14:56;;;;;;;4.53;3.20;;;;;;;7.36;46.69;101173.47;4921173;28;98536;-61
2021/03/09 06:17:37;;;;;;;4.47;3.10;;;;;;;7.45;46.64;101176.66;4922478;28;98030;-61
2021/03/09 06:20:04;;;;;;;3.95;2.70;;;;;;;7.48;46.56;101179.69;4922675;28;98037;-59
2021/03/09 06:22:47;;;;;;;3.80;3.10;;;;;;;7.47;46.69;101179.94;4922795;28;98725;-59
2021/03/09 06:25:15;;;;;;;3.60;2.93;;;;;;;7.55;47.18;101184.97;4922237;28;98591;-62
2021/03/09 06:27:41;;;;;;;6.30;3.53;;;;;;;7.59;46.27;101176.22;4922341;28;97912;-59
2021/03/09 06:30:13;;;;;;;6.38;4.90;;;;;;;7.68;47.21;101179.38;4921667;28;116900;-61
2021/03/09 06:32:45;;;;;;;9.25;6.30;;;;;;;7.72;46.97;101179.75;4920162;28;99388;-61
2021/03/09 06:35:29;;;;;;;7.53;6.38;;;;;;;7.85;46.72;101179.50;4922051;28;100490;-59
2021/03/09 06:38:29;;;;;;;8.05;6.97;;;;;;;7.93;46.90;101181.84;4921798;28;98522;-59
2021/03/09 06:41:18;;;;;;;8.10;6.82;;;;;;;8.04;46.75;101186.41;4922447;28;97854;-61
2021/03/09 06:43:59;;;;;;;8.60;6.88;;;;;;;8.16;46.97;101180.22;4922554;28;99057;-59
2021/03/09 06:46:25;;;;;;;9.95;7.10;;;;;;;8.18;46.83;101175.47;4920054;28;118049;-59
2021/03/09 06:49:00;;;;;;;8.73;7.55;;;;;;;8.27;46.94;101177.53;4920869;28;126539;-61
2021/03/09 06:51:36;;;;;;;10.25;8.02;;;;;;;8.40;47.22;101170.31;4921472;28;112213;-61
2021/03/09 06:54:12;;;;;;;14.07;11.15;;;;;;;8.44;47.04;101177.66;4922027;28;99554;-61
2021/03/09 06:56:42;;;;;;;16.55;11.65;;;;;;;8.53;47.04;101170.91;4922267;28;98350;-61
2021/03/09 06:59:28;;;;;;;17.33;13.05;;;;;;;8.66;47.36;101179.75;4921801;28;97843;-59
2021/03/09 07:02:10;;;;;;;19.45;14.00;;;;;;;8.76;47.21;101182.63;4904877;28;97878;-60
2021/03/09 07:04:41;;;;;;;20.90;14.13;;;;;;;8.83;47.46;101176.06;4920056;28;99041;-58
2021/03/09 07:07:10;;;;;;;19.85;14.70;;;;;;;8.93;46.97;101175.47;4925109;28;99064;-58
2021/03/09 07:09:36;;;;;;;19.42;14.60;;;;;;;9.02;47.29;101184.78;4924430;28;98553;-59
2021/03/09 07:12:03;;;;;;;18.65;13.25;;;;;;;9.07;46.90;101176.78;4925741;28;97843;-59
2021/03/09 07:14:31;;;;;;;16.75;12.45;;;;;;;9.16;47.22;101185.31;4923327;28;98541;-61
2021/03/09 07:16:59;;;;;;;16.45;12.00;;;;;;;9.22;47.57;101178.16;4924889;28;98876;-61
2021/03/09 07:19:44;;;;;;;15.80;11.10;;;;;;;9.30;47.41;101173.19;4906509;28;106498;-59
2021/03/09 07:22:11;;;;;;;13.75;10.13;;;;;;;9.31;47.98;101168.63;4925385;28;97858;-61
2021/03/09 07:24:45;;;;;;;14.23;10.35;;;;;;;9.37;47.85;101164.16;4924797;28;106584;-59
2021/03/09 07:27:14;;;;;;;12.32;9.18;;;;;;;9.46;47.86;101168.09;4923151;28;98332;-59
2021/03/09 07:29:50;;;;;;;13.25;9.30;;;;;;;9.50;47.82;101180.00;4905747;28;119104;-61
2021/03/09 07:32:20;;;;;;;12.77;9.40;;;;;;;9.56;48.60;101176.34;4907784;28;111420;-61
2021/03/09 07:34:46;;;;;;;11.40;8.93;;;;;;;9.65;47.93;101176.75;4907737;28;98510;-61
2021/03/09 07:37:12;;;;;;;11.98;7.97;;;;;;;9.72;48.11;101170.16;4922517;28;126977;-59
2021/03/09 07:39:38;;;;;;;10.80;8.60;;;;;;;9.83;48.61;101173.84;4923735;28;127481;-59
2021/03/09 07:42:05;;;;;;;11.10;7.82;;;;;;;9.93;48.42;101182.06;4925161;28;97978;-59
2021/03/09 07:44:31;;;;;;;10.25;6.95;;;;;;;10.04;48.18;101173.06;4937885;28;124656;-59
2021/03/09 07:46:59;;;;;;;10.23;6.95;;;;;;;10.14;48.29;101167.03;4922364;28;126174;-59
2021/03/09 07:49:25;;;;;;;8.52;6.70;;;;;;;10.24;48.30;101169.03;4939180;28;98067;-59
2021/03/09 07:52:09;;;;;;;8.68;6.60;;;;;;;10.42;48.28;101165.28;4923710;28;115493;-60
2021/03/09 07:54:36;;;;;;;7.50;5.60;;;;;;;10.51;48.01;101158.41;4922188;28;98057;-61
2021/03/09 07:57:22;;;;;;;7.80;5.70;;;;;;;10.76;47.43;101156.00;4923912;28;99317;-60
2021/03/09 07:59:58;;;;;;;7.13;5.50;;;;;;;10.86;48.06;101152.63;4955332;28;99527;-61
2021/03/09 08:02:54;;;;;;;6.78;5.15;;;;;;;11.15;47.47;101153.19;4923831;28;97836;-61
2021/03/09 08:05:28;;;;;;;6.53;4.50;;;;;;;11.37;47.05;101153.16;4924111;28;98362;-61
2021/03/09 08:08:04;;;;;;;7.00;4.72;;;;;;;11.61;47.43;101153.63;4923817;28;98837;-59
2021/03/09 08:10:33;;;;;;;6.35;4.60;;;;;;;11.86;46.49;101144.13;4921958;28;98319;-59
2021/03/09 08:13:08;;;;;;;5.75;4.28;;;;;;;12.31;46.13;101148.19;4922891;28;100679;-59
2021/03/09 08:15:38;;;;;;;6.30;4.28;;;;;;;12.72;45.31;101136.47;4923904;28;97762;-59
2021/03/09 08:18:23;;;;;;;6.05;4.18;;;;;;;13.34;44.31;101134.75;4922296;28;123589;-59
2021/03/09 08:20:56;;;;;;;6.10;3.75;;;;;;;13.81;43.49;101130.16;4924094;28;98020;-60
2021/03/09 08:23:32;;;;;;;5.05;3.90;;;;;;;14.27;42.46;101130.88;4905709;28;98084;-60
2021/03/09 08:26:25;;;;;;;4.72;4.18;;;;;;;14.99;41.78;101128.69;4922279;28;98039;-62
2021/03/09 08:28:52;;;;;;;5.13;3.75;;;;;;;15.43;41.01;101127.81;4923170;28;98463;-60
2021/03/09 08:31:17;;;;;;;5.47;3.88;;;;;;;15.59;40.97;101123.06;4921499;28;97994;-60
2021/03/09 08:33:52;;;;;;;4.80;3.83;;;;;;;15.97;40.47;101121.41;4923940;28;98073;-62
2021/03/09 08:36:24;;;;;;;4.10;3.25;;;;;;;16.45;39.85;101115.97;4923617;28;98133;-60
2021/03/09 08:39:03;;;;;;;4.18;3.30;;;;;;;16.96;39.25;101117.22;4923487;28;98314;-62
2021/03/09 08:41:44;;;;;;;4.00;2.85;;;;;;;17.12;39.37;101111.25;4924045;28;98123;-60
2021/03/09 08:44:19;;;;;;;3.72;3.10;;;;;;;17.27;38.89;101112.94;4921300;28;98269;-62
2021/03/09 08:47:06;;;;;;;3.65;3.00;;;;;;;17.82;38.30;101104.97;4924214;28;98513;-62
2021/03/09 08:49:35;;;;;;;3.42;2.83;;;;;;;18.18;37.56;101103.47;4923607;28;98481;-60
2021/03/09 08:52:16;;;;;;;4.53;2.70;;;;;;;18.64;37.07;101106.09;4954778;28;98192;-61
2021/03/09 08:54:47;;;;;;;3.38;2.50;;;;;;;19.37;36.16;101101.41;4924010;28;97809;-62
2021/03/09 08:57:21;;;;;;;2.97;2.60;;;;;;;19.76;35.60;101099.91;4923313;28;98602;-62
2021/03/09 08:59:51;;;;;;;3.22;2.47;;;;;;;20.19;35.12;101104.78;4923143;28;99074;-62
2021/03/09 09:02:18;;;;;;;2.85;2.38;;;;;;;20.40;35.07;101105.03;4914627;28;105936;-62
2021/03/09 09:04:56;;;;;;;3.20;2.65;;;;;;;20.65;35.17;101100.75;4918438;28;98075;-61
2021/03/09 09:07:27;;;;;;;3.10;2.70;;;;;;;21.27;34.36;101097.72;4938129;28;98388;-63
2021/03/09 09:10:02;;;;;;;2.80;2.40;;;;;;;21.59;34.27;101090.91;4923401;28;98999;-62
2021/03/09 09:12:31;;;;;;;3.00;2.65;;;;;;;21.91;34.16;101094.19;4920471;28;123790;-61
2021/03/09 09:15:21;;;;;;;2.90;2.20;;;;;;;22.58;33.52;101092.59;4923625;28;97693;-63
2021/03/09 09:17:57;;;;;;;2.92;2.40;;;;;;;23.05;33.27;101097.91;4922643;28;98234;-61
2021/03/09 09:20:47;;;;;;;3.13;2.30;;;;;;;23.74;32.04;101091.78;4923462;28;98120;-61
2021/03/09 09:23:18;;;;;;;2.55;1.95;;;;;;;24.16;31.56;101084.09;4922360;28;97767;-61
2021/03/09 09:25:48;;;;;;;4.17;2.27;;;;;;;24.64;31.25;101085.25;4923356;28;97980;-61
2021/03/09 09:28:43;;;;;;;3.10;2.28;;;;;;;25.26;30.38;101080.34;4921073;28;120384;-61
2021/03/09 09:31:17;;;;;;;2.60;2.00;;;;;;;25.25;30.73;101086.22;4923559;28;98461;-61
2021/03/09 09:33:50;;;;;;;3.15;1.90;;;;;;;25.77;30.19;101082.47;4923383;28;98030;-63
2021/03/09 09:36:16;;;;;;;2.22;1.58;;;;;;;25.45;31.32;101077.72;4905101;28;104433;-61
2021/03/09 09:38:42;;;;;;;2.20;1.88;;;;;;;25.81;30.51;101084.19;4922072;28;127162;-61
2021/03/09 09:41:08;;;;;;;2.63;1.60;;;;;;;26.18;30.16;101079.19;4923474;28;117343;-63
2021/03/09 09:43:36;;;;;;;2.92;1.80;;;;;;;26.90;29.15;101084.34;4922753;28;98845;-61
2021/03/09 09:46:04;;;;;;;2.38;1.63;;;;;;;27.47;28.51;101076.41;4923813;28;98047;-64
2021/03/09 09:48:38;;;;;;;1.98;1.77;;;;;;;28.20;27.81;101080.00;4920717;28;119775;-61
2021/03/09 09:51:20;;;;;;;2.15;1.33;;;;;;;28.73;27.37;101079.19;4920972;28;99179;-63
2021/03/09 09:53:49;;;;;;;2.40;1.67;;;;;;;28.81;27.29;101078.94;4923402;28;98541;-61
2021/03/09 09:56:18;;;;;;;2.20;1.42;;;;;;;29.10;27.04;101074.53;4922997;28;97860;-61
2021/03/09 09:58:44;;;;;;;1.90;1.42;;;;;;;29.01;27.29;101076.03;4923284;28;98522;-63
2021/03/09 10:01:12;;;;;;;1.92;1.33;;;;;;;28.95;27.28;101071.94;4922815;28;98602;-63
2021/03/09 10:04:00;;;;;;;2.20;1.45;;;;;;;28.94;27.61;101064.81;4921322;28;99105;-60
2021/03/09 10:06:28;;;;;;;1.70;1.30;;;;;;;28.52;27.81;101066.66;4923334;28;97976;-63
2021/03/09 10:08:55;;;;;;;2.30;1.33;;;;;;;28.29;27.91;101063.91;4922837;28;98611;-61
2021/03/09 10:11:21;;;;;;;1.60;1.20;;;;;;;27.35;28.99;101062.72;4904877;28;97960;-63
2021/03/09 10:13:48;;;;;;;1.70;1.13;;;;;;;27.30;29.24;101063.03;4921632;28;126977;-61
2021/03/09 10:16:14;;;;;;;1.40;1.08;;;;;;;26.79;30.14;101058.44;4922542;28;97883;-63
2021/03/09 10:18:40;;;;;;;1.35;0.80;;;;;;;26.59;30.50;101054.88;4921467;28;99183;-63
2021/03/09 10:21:07;;;;;;;1.52;1.00;;;;;;;26.43;30.91;101049.34;4921953;28;128428;-61
2021/03/09 10:23:53;;;;;;;1.83;0.90;;;;;;;26.66;30.77;101040.41;4920536;28;98042;-61
2021/03/09 10:26:30;;;;;;;1.60;0.73;;;;;;;26.75;30.95;101043.75;4920741;28;98002;-64
2021/03/09 10:29:12;;;;;;;1.20;0.70;;;;;;;26.80;31.04;101045.41;4920073;28;98612;-61
2021/03/09 10:31:44;;;;;;;2.78;0.95;;;;;;;26.90;31.13;101039.31;4919499;28;99106;-61
2021/03/09 10:34:11;;;;;;;;;;;;;;;27.53;30.52;101027.88;4922034;28;98042;-61
2021/03/09 10:37:07;;;;;;;2.63;0.80;;;;;;;27.40;30.88;101038.31;4921130;28;97834;-64
2021/03/09 10:39:35;;;;;;;2.08;0.80;;;;;;;27.37;30.76;101041.03;4921668;28;99119;-64
2021/03/09 10:42:50;;;;;;;1.30;0.80;;;;;;;27.60;30.38;101036.28;4921305;28;113419;-61
2021/03/09 10:45:16;;;;;;;1.63;0.93;;;;;;;27.34;30.28;101039.78;4909130;28;97793;-61
2021/03/09 10:48:01;;;;;;;1.88;0.80;;;;;;;27.35;30.35;101037.81;4922790;28;97963;-61
2021/03/09 10:50:32;;;;;;;1.30;0.65;;;;;;;26.92;31.00;101037.78;4922494;28;98205;-64
2021/03/09 10:52:58;;;;;;;1.33;0.80;;;;;;;26.44;31.47;101033.56;4922691;28;98492;-64
2021/03/09 10:55:25;;;;;;;1.67;0.70;;;;;;;25.90;32.25;101028.81;4922881;28;98286;-61
2021/03/09 10:57:52;;;;;;;1.67;0.82;;;;;;;25.44;32.66;101029.22;4922293;28;97716;-61
2021/03/09 11:00:19;;;;;;;2.67;0.90;;;;;;;25.13;33.13;101031.91;4905011;28;98909;-61
2021/03/09 11:02:46;;;;;;;1.55;0.70;;;;;;;24.85;33.01;101032.69;4920439;28;98160;-61
2021/03/09 11:05:13;;;;;;;1.65;0.80;;;;;;;24.48;33.53;101037.50;4920829;28;97971;-61
2021/03/09 11:07:40;;;;;;;1.73;0.80;;;;;;;24.29;33.44;101035.34;4904225;28;98023;-63
2021/03/09 11:10:07;;;;;;;1.50;0.90;;;;;;;24.30;33.59;101036.16;4921791;28;98334;-61
2021/03/09 11:12:33;;;;;;;1.70;0.98;;;;;;;24.12;34.17;101032.81;4921786;28;98479;-60
2021/03/09 11:14:59;;;;;;;1.45;0.80;;;;;;;23.94;33.61;101035.03;4952258;28;123337;-63
2021/03/09 11:17:25;;;;;;;1.60;1.00;;;;;;;23.69;33.27;101023.97;4921017;28;116662;-60
2021/03/09 11:19:51;;;;;;;1.70;0.80;;;;;;;23.48;34.38;101020.50;4926074;28;116393;-60
2021/03/09 11:22:18;;;;;;;2.05;1.00;;;;;;;23.23;33.91;101025.94;4920474;28;128560;-60
2021/03/09 11:24:44;;;;;;;1.25;0.77;;;;;;;23.22;34.48;101027.06;4922253;28;98173;-63
2021/03/09 11:27:10;;;;;;;2.00;0.93;;;;;;;23.16;34.47;101020.19;4922660;28;97845;-60
2021/03/09 11:29:37;;;;;;;2.00;1.00;;;;;;;23.19;34.07;101026.97;4921967;28;101913;-60
2021/03/09 11:32:06;;;;;;;2.15;0.95;;;;;;;22.89;33.88;101005.06;4921445;28;99565;-62
2021/03/09 11:34:33;;;;;;;3.15;0.90;;;;;;;22.84;35.06;101012.72;4921740;28;98405;-60
2021/03/09 11:36:59;;;;;;;1.73;0.85;;;;;;;22.65;34.53;101013.19;4920960;28;108688;-63
2021/03/09 11:39:25;;;;;;;1.75;0.80;;;;;;;22.58;34.86;101005.47;4921109;28;99260;-62
2021/03/09 11:41:51;;;;;;;1.83;1.00;;;;;;;22.72;34.71;101007.97;4922883;28;99092;-61
2021/03/09 11:44:19;;;;;;;1.42;0.90;;;;;;;22.80;34.84;100996.09;4920501;28;118362;-60